Time;durP1;ratioP1;P1;durP2;ratioP2;P2;SDS_P1;SDS_P2;PMS_P1;PMS_P2;Temp;Humidity;BMP_temperature;BMP_pressure;BME280_temperature;BME280_humidity;BME280_pressure;Samples;Min_cycle;Max_cycle;Signal;HPM_P1;HPM_P2
2022/03/06 00:00:46;;;;;;;59.13;23.60;;;;;;;;;;5103884;28;20016;-75
2022/03/06 00:03:12;;;;;;;61.15;22.55;;;;;;;;;;5099605;27;20024;-75
2022/03/06 00:05:37;;;;;;;71.93;25.88;;;;;;;;;;5105966;27;20031;-74
2022/03/06 00:08:03;;;;;;;60.38;21.85;;;;;;;;;;5107850;27;20035;-74
2022/03/06 00:10:30;;;;;;;66.38;22.33;;;;;;;;;;5103927;28;20039;-74
2022/03/06 00:12:55;;;;;;;70.82;24.20;;;;;;;;;;5103410;28;20036;-75
2022/03/06 00:15:22;;;;;;;59.97;20.52;;;;;;;;;;5109124;27;20424;-75
2022/03/06 00:17:48;;;;;;;57.33;19.80;;;;;;;;;;5108664;27;20056;-74
2022/03/06 00:20:13;;;;;;;63.38;21.77;;;;;;;;;;5107678;27;20102;-75
2022/03/06 00:22:39;;;;;;;69.00;25.05;;;;;;;;;;5094409;28;20241;-75
2022/03/06 00:25:05;;;;;;;60.50;21.88;;;;;;;;;;5101599;28;20118;-75
2022/03/06 00:27:30;;;;;;;66.13;23.35;;;;;;;;;;5093915;28;20037;-75
2022/03/06 00:29:56;;;;;;;63.03;20.30;;;;;;;;;;5083836;28;20035;-75
2022/03/06 00:32:21;;;;;;;61.55;22.25;;;;;;;;;;5071737;28;20069;-74
2022/03/06 00:34:48;;;;;;;69.65;25.90;;;;;;;;;;5078391;28;20029;-74
2022/03/06 00:37:14;;;;;;;54.75;20.55;;;;;;;;;;5086053;28;20055;-74
2022/03/06 00:39:39;;;;;;;67.40;24.58;;;;;;;;;;5089722;28;20047;-75
2022/03/06 00:42:07;;;;;;;65.70;22.80;;;;;;;;;;5086745;28;20060;-75
2022/03/06 00:44:32;;;;;;;65.60;24.67;;;;;;;;;;5087033;28;20139;-74
2022/03/06 00:46:58;;;;;;;62.13;22.33;;;;;;;;;;5091227;27;20517;-75
2022/03/06 00:49:23;;;;;;;69.32;23.30;;;;;;;;;;5107447;27;20068;-75
2022/03/06 00:51:48;;;;;;;50.53;18.25;;;;;;;;;;5106453;28;20571;-75
2022/03/06 00:54:13;;;;;;;72.50;25.50;;;;;;;;;;5100957;27;20047;-74
2022/03/06 00:56:39;;;;;;;62.90;23.27;;;;;;;;;;5099134;27;20031;-75
2022/03/06 00:59:04;;;;;;;65.55;23.60;;;;;;;;;;5101297;27;20057;-74
2022/03/06 01:01:30;;;;;;;64.88;22.08;;;;;;;;;;5098432;28;20649;-74
2022/03/06 01:03:55;;;;;;;61.83;21.52;;;;;;;;;;5103275;27;20389;-75
2022/03/06 01:06:20;;;;;;;50.22;18.42;;;;;;;;;;5107298;27;20043;-75
2022/03/06 01:08:46;;;;;;;64.18;21.70;;;;;;;;;;5104184;28;20042;-75
2022/03/06 01:11:11;;;;;;;64.35;22.02;;;;;;;;;;5104872;27;20039;-74
2022/03/06 01:13:36;;;;;;;69.93;22.45;;;;;;;;;;5101913;27;20699;-74
2022/03/06 01:16:02;;;;;;;58.97;19.58;;;;;;;;;;5101747;28;20460;-74
2022/03/06 01:18:27;;;;;;;65.72;23.25;;;;;;;;;;5096594;28;20035;-74
2022/03/06 01:20:52;;;;;;;69.18;24.08;;;;;;;;;;5084355;27;20119;-74
2022/03/06 01:23:18;;;;;;;69.93;23.48;;;;;;;;;;5083096;28;20080;-74
2022/03/06 01:25:43;;;;;;;60.35;20.52;;;;;;;;;;5099747;28;20036;-74
2022/03/06 01:28:09;;;;;;;62.03;22.48;;;;;;;;;;5097872;28;20024;-74
2022/03/06 01:30:34;;;;;;;59.95;20.33;;;;;;;;;;5107333;28;20073;-75
2022/03/06 01:33:00;;;;;;;56.67;21.17;;;;;;;;;;5107341;27;20714;-75
2022/03/06 01:35:26;;;;;;;57.90;19.85;;;;;;;;;;5106088;28;20113;-74
2022/03/06 01:37:51;;;;;;;58.08;20.77;;;;;;;;;;5103490;28;20032;-74
2022/03/06 01:40:20;;;;;;;57.42;21.35;;;;;;;;;;5101493;27;20020;-74
2022/03/06 01:42:48;;;;;;;61.03;21.30;;;;;;;;;;5103899;28;20722;-75
2022/03/06 01:45:15;;;;;;;67.78;21.73;;;;;;;;;;5102801;28;20052;-75
2022/03/06 01:47:46;;;;;;;54.58;20.55;;;;;;;;;;5103027;27;20038;-75
2022/03/06 01:50:17;;;;;;;62.88;21.45;;;;;;;;;;5098365;28;20532;-75
2022/03/06 01:52:43;;;;;;;68.43;23.90;;;;;;;;;;5086976;28;20509;-74
2022/03/06 01:55:10;;;;;;;65.30;25.20;;;;;;;;;;5083576;28;20112;-74
2022/03/06 01:57:39;;;;;;;61.40;22.27;;;;;;;;;;5097788;28;20015;-74
2022/03/06 02:00:07;;;;;;;68.90;21.73;;;;;;;;;;5104066;27;20035;-74
2022/03/06 02:02:33;;;;;;;70.65;24.42;;;;;;;;;;5110874;27;20506;-74
2022/03/06 02:05:00;;;;;;;69.18;24.05;;;;;;;;;;5102081;28;20032;-74
2022/03/06 02:07:25;;;;;;;67.82;23.83;;;;;;;;;;5114958;27;20023;-74
2022/03/06 02:09:51;;;;;;;70.25;24.75;;;;;;;;;;5105356;27;20223;-74
2022/03/06 02:12:23;;;;;;;65.82;23.38;;;;;;;;;;5103840;27;20047;-75
2022/03/06 02:14:57;;;;;;;73.13;24.30;;;;;;;;;;5112721;27;20039;-75
2022/03/06 02:17:24;;;;;;;66.50;22.70;;;;;;;;;;5112529;27;20040;-75
2022/03/06 02:20:01;;;;;;;56.90;20.35;;;;;;;;;;5098415;27;20480;-74
2022/03/06 02:22:31;;;;;;;66.30;24.05;;;;;;;;;;5114561;27;20401;-74
2022/03/06 02:24:58;;;;;;;63.72;20.92;;;;;;;;;;5117527;27;20055;-74
2022/03/06 02:27:24;;;;;;;56.70;21.33;;;;;;;;;;5105309;27;20051;-74
2022/03/06 02:29:50;;;;;;;60.72;21.10;;;;;;;;;;5102706;28;20509;-75
2022/03/06 02:32:18;;;;;;;59.70;21.88;;;;;;;;;;5100313;27;20079;-74
2022/03/06 02:34:45;;;;;;;54.53;19.88;;;;;;;;;;5106990;28;20152;-74
2022/03/06 02:37:11;;;;;;;57.55;19.80;;;;;;;;;;5109008;28;20038;-74
2022/03/06 02:39:37;;;;;;;57.10;20.02;;;;;;;;;;5097175;28;20407;-75
2022/03/06 02:42:03;;;;;;;59.55;21.30;;;;;;;;;;5106973;27;20031;-74
2022/03/06 02:44:29;;;;;;;56.75;18.27;;;;;;;;;;5106214;28;20070;-74
2022/03/06 02:46:55;;;;;;;52.63;19.23;;;;;;;;;;5100113;27;20056;-74
2022/03/06 02:49:21;;;;;;;61.58;20.98;;;;;;;;;;5094314;27;20051;-76
2022/03/06 02:51:47;;;;;;;54.95;20.33;;;;;;;;;;5109231;27;20485;-74
2022/03/06 02:54:14;;;;;;;69.00;22.10;;;;;;;;;;5097310;28;20521;-74
2022/03/06 02:56:40;;;;;;;59.15;21.67;;;;;;;;;;5109203;28;20032;-74
2022/03/06 02:59:07;;;;;;;60.28;19.90;;;;;;;;;;5108778;27;20405;-75
2022/03/06 03:01:39;;;;;;;61.92;21.85;;;;;;;;;;5105720;27;20031;-74
2022/03/06 03:04:04;;;;;;;58.58;22.00;;;;;;;;;;5108118;28;20024;-75
2022/03/06 03:06:30;;;;;;;75.72;26.85;;;;;;;;;;5108999;28;20027;-74
2022/03/06 03:08:56;;;;;;;59.85;23.45;;;;;;;;;;5098998;28;20043;-74
2022/03/06 03:11:21;;;;;;;61.17;22.92;;;;;;;;;;5093447;28;20063;-75
2022/03/06 03:13:46;;;;;;;76.40;24.23;;;;;;;;;;5100124;28;20120;-75
2022/03/06 03:16:12;;;;;;;62.15;21.67;;;;;;;;;;5097938;27;20134;-74
2022/03/06 03:18:37;;;;;;;64.78;22.02;;;;;;;;;;5108982;27;20020;-74
2022/03/06 03:21:03;;;;;;;61.33;20.75;;;;;;;;;;5106999;27;20119;-75
2022/03/06 03:23:28;;;;;;;58.55;19.98;;;;;;;;;;5099103;27;20378;-74
2022/03/06 03:25:54;;;;;;;58.72;20.70;;;;;;;;;;5095887;27;20541;-75
2022/03/06 03:28:20;;;;;;;56.85;19.55;;;;;;;;;;5108368;28;20043;-74
2022/03/06 03:30:45;;;;;;;56.90;20.42;;;;;;;;;;5119183;27;20079;-75
2022/03/06 03:33:10;;;;;;;54.03;20.75;;;;;;;;;;5119106;27;20040;-75
2022/03/06 03:35:36;;;;;;;53.03;19.00;;;;;;;;;;5106921;27;20032;-74
2022/03/06 03:38:01;;;;;;;61.92;20.30;;;;;;;;;;5104167;27;20041;-75
2022/03/06 03:40:26;;;;;;;46.60;17.42;;;;;;;;;;5103762;27;20067;-74
2022/03/06 03:42:52;;;;;;;54.30;18.55;;;;;;;;;;5102091;28;20023;-75
2022/03/06 03:45:17;;;;;;;55.42;20.40;;;;;;;;;;5101428;28;20036;-75
2022/03/06 03:47:42;;;;;;;55.95;19.63;;;;;;;;;;5101030;28;20024;-74
2022/03/06 03:50:08;;;;;;;53.63;20.38;;;;;;;;;;5109417;27;20036;-75
2022/03/06 03:52:34;;;;;;;52.67;19.23;;;;;;;;;;5108948;27;20036;-75
2022/03/06 03:54:59;;;;;;;48.10;18.13;;;;;;;;;;5109296;27;20062;-76
2022/03/06 03:57:24;;;;;;;60.58;20.27;;;;;;;;;;5107811;27;20458;-74
2022/03/06 03:59:51;;;;;;;58.35;19.15;;;;;;;;;;5109516;27;20039;-74
2022/03/06 04:02:16;;;;;;;53.40;19.15;;;;;;;;;;5099971;28;20068;-74
2022/03/06 04:04:42;;;;;;;54.28;18.45;;;;;;;;;;5101845;27;20135;-75
2022/03/06 04:07:07;;;;;;;47.25;18.98;;;;;;;;;;5108906;27;20118;-75
2022/03/06 04:09:33;;;;;;;51.92;18.38;;;;;;;;;;5110737;27;20020;-74
2022/03/06 04:11:58;;;;;;;56.20;18.52;;;;;;;;;;5109663;27;20077;-74
2022/03/06 04:14:24;;;;;;;56.25;20.75;;;;;;;;;;5107719;27;20051;-74
2022/03/06 04:16:49;;;;;;;58.08;19.60;;;;;;;;;;5108581;27;20043;-75
2022/03/06 04:19:14;;;;;;;59.13;20.52;;;;;;;;;;5106974;27;20077;-74
2022/03/06 04:21:40;;;;;;;57.90;20.98;;;;;;;;;;5102154;28;20024;-74
2022/03/06 04:24:06;;;;;;;57.30;19.52;;;;;;;;;;5107203;27;20043;-75
2022/03/06 04:26:31;;;;;;;63.20;22.80;;;;;;;;;;5114620;27;20080;-76
2022/03/06 04:28:56;;;;;;;63.65;22.08;;;;;;;;;;5123099;27;20035;-74
2022/03/06 04:31:22;;;;;;;61.92;22.85;;;;;;;;;;5106748;27;20054;-74
2022/03/06 04:33:47;;;;;;;55.72;18.77;;;;;;;;;;5107813;27;20031;-75
2022/03/06 04:36:12;;;;;;;57.78;19.52;;;;;;;;;;5109332;27;20515;-74
2022/03/06 04:38:39;;;;;;;62.05;20.88;;;;;;;;;;5107607;27;20043;-74
2022/03/06 04:41:04;;;;;;;66.40;24.88;;;;;;;;;;5107215;28;20114;-74
2022/03/06 04:43:30;;;;;;;64.22;22.35;;;;;;;;;;5102938;27;20114;-75
2022/03/06 04:45:55;;;;;;;59.20;21.75;;;;;;;;;;5104463;28;20034;-74
2022/03/06 04:48:20;;;;;;;59.65;21.38;;;;;;;;;;5107168;27;20973;-74
2022/03/06 04:50:46;;;;;;;56.13;20.25;;;;;;;;;;5093754;27;20472;-75
2022/03/06 04:53:11;;;;;;;57.42;19.35;;;;;;;;;;5091785;28;20131;-74
2022/03/06 04:55:37;;;;;;;54.83;18.73;;;;;;;;;;5105089;27;20748;-75
2022/03/06 04:58:02;;;;;;;55.95;19.92;;;;;;;;;;5102561;28;20043;-74
2022/03/06 05:00:28;;;;;;;49.78;19.25;;;;;;;;;;5100608;28;20039;-74
2022/03/06 05:02:53;;;;;;;61.42;21.65;;;;;;;;;;5105072;27;20031;-75
2022/03/06 05:05:18;;;;;;;51.92;18.17;;;;;;;;;;5108605;27;20035;-75
2022/03/06 05:07:44;;;;;;;48.17;17.77;;;;;;;;;;5105303;27;20080;-75
2022/03/06 05:10:10;;;;;;;47.00;18.23;;;;;;;;;;5107558;27;20050;-74
2022/03/06 05:12:37;;;;;;;54.75;18.27;;;;;;;;;;5105363;27;20022;-75
2022/03/06 05:15:04;;;;;;;56.38;20.92;;;;;;;;;;5114151;27;20032;-74
2022/03/06 05:17:29;;;;;;;50.33;18.40;;;;;;;;;;5105998;28;20043;-75
2022/03/06 05:19:54;;;;;;;60.45;20.90;;;;;;;;;;5106975;27;20043;-75
2022/03/06 05:22:20;;;;;;;52.50;18.83;;;;;;;;;;5103248;28;20032;-74
2022/03/06 05:24:45;;;;;;;59.70;22.73;;;;;;;;;;5095326;28;20531;-74
2022/03/06 05:27:10;;;;;;;62.35;23.13;;;;;;;;;;5104545;27;20032;-74
2022/03/06 05:29:36;;;;;;;52.92;17.92;;;;;;;;;;5102869;27;20412;-75
2022/03/06 05:32:01;;;;;;;27.23;12.40;;;;;;;;;;5104384;27;20036;-75
2022/03/06 05:34:26;;;;;;;48.40;19.25;;;;;;;;;;5120542;27;20054;-75
2022/03/06 05:36:52;;;;;;;48.95;17.60;;;;;;;;;;5111149;28;20031;-74
2022/03/06 05:39:17;;;;;;;46.83;17.20;;;;;;;;;;5084451;27;20417;-74
2022/03/06 05:41:42;;;;;;;42.55;16.17;;;;;;;;;;5088441;28;20036;-74
2022/03/06 05:44:08;;;;;;;50.42;17.23;;;;;;;;;;5094940;28;20031;-76
2022/03/06 05:46:33;;;;;;;59.25;20.35;;;;;;;;;;5099003;27;20085;-74
2022/03/06 05:48:58;;;;;;;64.53;24.17;;;;;;;;;;5074944;28;20050;-74
2022/03/06 05:51:23;;;;;;;55.97;18.92;;;;;;;;;;5109917;27;20036;-75
2022/03/06 05:53:49;;;;;;;44.78;17.65;;;;;;;;;;5118800;27;20233;-74
2022/03/06 05:56:14;;;;;;;50.65;17.08;;;;;;;;;;5109731;27;20397;-75
2022/03/06 05:58:39;;;;;;;52.80;18.27;;;;;;;;;;5112426;27;20039;-75
2022/03/06 06:01:05;;;;;;;47.33;17.13;;;;;;;;;;5112728;27;20114;-74
2022/03/06 06:03:30;;;;;;;45.75;17.55;;;;;;;;;;5111028;27;20536;-75
2022/03/06 06:05:55;;;;;;;51.13;16.60;;;;;;;;;;5128954;27;20084;-74
2022/03/06 06:08:21;;;;;;;56.13;19.38;;;;;;;;;;5110536;27;20035;-75
2022/03/06 06:10:46;;;;;;;38.67;16.17;;;;;;;;;;5115064;27;20433;-75
2022/03/06 06:13:14;;;;;;;48.50;17.67;;;;;;;;;;5113436;27;20027;-75
2022/03/06 06:15:43;;;;;;;44.90;16.73;;;;;;;;;;5112102;27;20062;-74
2022/03/06 06:18:08;;;;;;;37.45;15.32;;;;;;;;;;5118337;27;20118;-75
2022/03/06 06:20:36;;;;;;;44.72;17.38;;;;;;;;;;5102860;27;20130;-76
2022/03/06 06:23:03;;;;;;;53.30;17.05;;;;;;;;;;5102825;27;20039;-76
2022/03/06 06:25:28;;;;;;;41.03;15.57;;;;;;;;;;5105502;27;20088;-74
2022/03/06 06:27:53;;;;;;;52.40;18.30;;;;;;;;;;5111051;27;20023;-74
2022/03/06 06:30:18;;;;;;;48.28;17.35;;;;;;;;;;5108563;27;20122;-74
2022/03/06 06:32:44;;;;;;;46.40;16.60;;;;;;;;;;5109284;27;20055;-75
2022/03/06 06:35:09;;;;;;;45.33;16.13;;;;;;;;;;5116933;27;20080;-75
2022/03/06 06:37:34;;;;;;;46.85;14.73;;;;;;;;;;5120037;27;20393;-75
2022/03/06 06:40:00;;;;;;;48.42;16.25;;;;;;;;;;5107323;28;20032;-75
2022/03/06 06:42:25;;;;;;;55.50;18.70;;;;;;;;;;5103916;28;20027;-74
2022/03/06 06:44:50;;;;;;;34.88;13.18;;;;;;;;;;5099733;28;20524;-75
2022/03/06 06:47:16;;;;;;;43.92;17.20;;;;;;;;;;5105809;27;20843;-74
2022/03/06 06:49:41;;;;;;;48.55;17.48;;;;;;;;;;5099774;28;20032;-75
2022/03/06 06:52:07;;;;;;;42.33;15.50;;;;;;;;;;5106656;27;20023;-74
2022/03/06 06:54:32;;;;;;;35.22;14.70;;;;;;;;;;5111608;27;20024;-76
2022/03/06 06:56:57;;;;;;;47.45;16.58;;;;;;;;;;5105349;28;20118;-75
2022/03/06 06:59:22;;;;;;;34.13;14.80;;;;;;;;;;5105565;28;20083;-76
2022/03/06 07:01:48;;;;;;;42.72;16.33;;;;;;;;;;5108008;28;20444;-75
2022/03/06 07:04:14;;;;;;;50.17;18.00;;;;;;;;;;5104891;27;20055;-76
2022/03/06 07:06:40;;;;;;;38.05;14.95;;;;;;;;;;5108634;27;20072;-74
2022/03/06 07:09:05;;;;;;;39.72;14.68;;;;;;;;;;5094264;28;20060;-74
2022/03/06 07:11:30;;;;;;;40.65;14.27;;;;;;;;;;5106769;28;20423;-76
2022/03/06 07:13:56;;;;;;;44.58;15.30;;;;;;;;;;5102532;27;20404;-75
2022/03/06 07:16:21;;;;;;;44.55;16.30;;;;;;;;;;5091664;28;20472;-75
2022/03/06 07:18:46;;;;;;;31.92;13.50;;;;;;;;;;5116008;27;20016;-75
2022/03/06 07:21:12;;;;;;;27.10;10.60;;;;;;;;;;5104094;27;20034;-75
2022/03/06 07:23:37;;;;;;;42.25;15.25;;;;;;;;;;5105937;27;20039;-74
2022/03/06 07:26:02;;;;;;;38.33;15.45;;;;;;;;;;5106953;27;20034;-74
2022/03/06 07:28:29;;;;;;;28.42;11.38;;;;;;;;;;5116123;27;20555;-74
2022/03/06 07:30:54;;;;;;;42.72;16.00;;;;;;;;;;5105735;28;20507;-74
2022/03/06 07:33:20;;;;;;;31.92;14.35;;;;;;;;;;5103478;27;20493;-75
2022/03/06 07:35:45;;;;;;;33.03;13.23;;;;;;;;;;5103774;27;20035;-75
2022/03/06 07:38:10;;;;;;;43.28;16.45;;;;;;;;;;5105250;28;20040;-75
2022/03/06 07:40:36;;;;;;;51.35;18.33;;;;;;;;;;5106709;27;20032;-75
2022/03/06 07:43:02;;;;;;;44.05;15.98;;;;;;;;;;5103595;27;20028;-76
2022/03/06 07:45:27;;;;;;;50.00;15.60;;;;;;;;;;5106541;27;20081;-75
2022/03/06 07:47:52;;;;;;;43.75;16.70;;;;;;;;;;5108913;27;20035;-74
2022/03/06 07:50:18;;;;;;;41.80;14.23;;;;;;;;;;5104181;27;20027;-75
2022/03/06 07:52:44;;;;;;;42.58;15.05;;;;;;;;;;5108771;27;20076;-74
2022/03/06 07:55:11;;;;;;;35.70;14.88;;;;;;;;;;5108980;28;20077;-75
2022/03/06 07:57:36;;;;;;;43.63;15.18;;;;;;;;;;5111207;27;20050;-75
2022/03/06 08:00:04;;;;;;;43.35;16.00;;;;;;;;;;5116949;27;20548;-75
2022/03/06 08:02:30;;;;;;;43.42;15.93;;;;;;;;;;5104420;27;20112;-75
2022/03/06 08:04:55;;;;;;;46.05;16.92;;;;;;;;;;5104986;27;20161;-75
2022/03/06 08:07:20;;;;;;;43.80;16.45;;;;;;;;;;5104320;27;20065;-75
2022/03/06 08:09:46;;;;;;;41.97;13.27;;;;;;;;;;5105320;27;20090;-74
2022/03/06 08:12:11;;;;;;;39.33;15.40;;;;;;;;;;5101923;27;20040;-74
2022/03/06 08:14:37;;;;;;;44.95;17.17;;;;;;;;;;5103775;27;20031;-75
2022/03/06 08:17:02;;;;;;;35.67;15.05;;;;;;;;;;5126044;27;20042;-76
2022/03/06 08:19:27;;;;;;;37.97;14.43;;;;;;;;;;5114251;27;20035;-74
2022/03/06 08:21:53;;;;;;;50.35;18.65;;;;;;;;;;5105360;27;20019;-75
2022/03/06 08:24:18;;;;;;;49.47;18.98;;;;;;;;;;5105756;27;20093;-75
2022/03/06 08:26:44;;;;;;;38.00;15.55;;;;;;;;;;5102961;27;20038;-76
2022/03/06 08:29:10;;;;;;;53.17;19.70;;;;;;;;;;5102684;28;20118;-74
2022/03/06 08:31:35;;;;;;;44.40;16.38;;;;;;;;;;5101124;28;20542;-75
2022/03/06 08:34:01;;;;;;;44.42;15.07;;;;;;;;;;5098868;27;20057;-75
2022/03/06 08:36:26;;;;;;;38.50;15.77;;;;;;;;;;5103885;27;20756;-74
2022/03/06 08:38:51;;;;;;;36.85;13.90;;;;;;;;;;5105313;27;20043;-76
2022/03/06 08:41:17;;;;;;;41.50;17.00;;;;;;;;;;5102162;27;21328;-74
2022/03/06 08:43:42;;;;;;;50.63;18.90;;;;;;;;;;5102089;27;20046;-75
2022/03/06 08:46:07;;;;;;;50.40;20.95;;;;;;;;;;5108937;27;20031;-75
2022/03/06 08:48:36;;;;;;;54.03;22.42;;;;;;;;;;5107581;27;20421;-75
2022/03/06 08:51:06;;;;;;;42.45;16.52;;;;;;;;;;5107340;27;20395;-75
2022/03/06 08:53:32;;;;;;;38.72;16.10;;;;;;;;;;5103936;27;20036;-74
2022/03/06 08:55:58;;;;;;;54.47;20.33;;;;;;;;;;5102952;27;20043;-74
2022/03/06 08:58:23;;;;;;;49.08;17.33;;;;;;;;;;5103226;27;20130;-74
2022/03/06 09:00:49;;;;;;;34.70;15.18;;;;;;;;;;5104762;28;20106;-74
2022/03/06 09:03:14;;;;;;;41.92;17.08;;;;;;;;;;5098670;27;20062;-75
2022/03/06 09:05:40;;;;;;;46.60;16.27;;;;;;;;;;5105077;27;20073;-74
2022/03/06 09:08:09;;;;;;;29.55;10.73;;;;;;;;;;5100851;27;20043;-76
2022/03/06 09:10:36;;;;;;;42.15;17.08;;;;;;;;;;5102227;28;20108;-75
2022/03/06 09:13:01;;;;;;;45.05;17.75;;;;;;;;;;5099818;27;20148;-75
2022/03/06 09:15:28;;;;;;;48.72;19.75;;;;;;;;;;5109332;27;20088;-76
2022/03/06 09:17:53;;;;;;;36.60;13.02;;;;;;;;;;5099856;27;20144;-74
2022/03/06 09:20:19;;;;;;;37.50;15.82;;;;;;;;;;5092267;28;20149;-75
2022/03/06 09:22:46;;;;;;;40.22;14.85;;;;;;;;;;5080669;28;20193;-74
2022/03/06 09:25:11;;;;;;;38.78;15.57;;;;;;;;;;5075329;28;20023;-75
2022/03/06 09:27:37;;;;;;;39.30;14.52;;;;;;;;;;5103364;27;20408;-75
2022/03/06 09:30:04;;;;;;;34.67;13.65;;;;;;;;;;5103087;28;20119;-75
2022/03/06 09:32:30;;;;;;;50.58;17.83;;;;;;;;;;5090146;28;20056;-77
2022/03/06 09:34:55;;;;;;;31.20;11.05;;;;;;;;;;5086985;28;20059;-75
2022/03/06 09:37:20;;;;;;;37.92;12.80;;;;;;;;;;5103230;28;20110;-75
2022/03/06 09:39:46;;;;;;;50.67;16.33;;;;;;;;;;5108671;28;20135;-75
2022/03/06 09:42:11;;;;;;;39.70;15.88;;;;;;;;;;5098874;28;20075;-76
2022/03/06 09:44:37;;;;;;;43.03;15.23;;;;;;;;;;5106180;28;20570;-76
2022/03/06 09:47:05;;;;;;;38.25;15.45;;;;;;;;;;5104608;28;20047;-76
2022/03/06 09:49:30;;;;;;;37.88;15.18;;;;;;;;;;5106925;27;20042;-76
2022/03/06 09:51:56;;;;;;;32.58;13.82;;;;;;;;;;5105099;28;20035;-75
2022/03/06 09:54:22;;;;;;;43.63;15.50;;;;;;;;;;5099727;27;20082;-76
2022/03/06 09:56:48;;;;;;;44.55;16.45;;;;;;;;;;5102395;27;20040;-75
2022/03/06 09:59:13;;;;;;;36.63;14.02;;;;;;;;;;5100264;27;20516;-76
2022/03/06 10:01:39;;;;;;;39.53;17.30;;;;;;;;;;5105260;27;20118;-75
2022/03/06 10:04:39;;;;;;;41.35;16.40;;;;;;;;;;5107313;28;20057;-76
2022/03/06 10:07:09;;;;;;;46.15;16.08;;;;;;;;;;5005384;28;20076;-75
2022/03/06 10:09:49;;;;;;;65.25;19.00;;;;;;;;;;5091061;28;20043;-75
2022/03/06 10:12:32;;;;;;;42.35;16.55;;;;;;;;;;5100200;28;20035;-76
2022/03/06 10:15:03;;;;;;;39.17;15.18;;;;;;;;;;5111687;28;20045;-77
2022/03/06 10:17:30;;;;;;;42.38;16.33;;;;;;;;;;5116929;27;20114;-76
2022/03/06 10:20:09;;;;;;;39.67;14.60;;;;;;;;;;5103258;28;20039;-75
2022/03/06 10:22:43;;;;;;;39.72;16.17;;;;;;;;;;5096222;28;20104;-76
2022/03/06 10:25:16;;;;;;;33.15;13.02;;;;;;;;;;5097280;28;20462;-75
2022/03/06 10:27:45;;;;;;;;;;;;;;;;;;5094699;28;20084;-77
2022/03/06 10:30:25;;;;;;;40.25;16.77;;;;;;;;;;5105070;27;20014;-76
2022/03/06 10:32:51;;;;;;;26.30;11.75;;;;;;;;;;5102238;27;20131;-76
2022/03/06 10:35:16;;;;;;;37.92;15.55;;;;;;;;;;5105182;27;20130;-75
2022/03/06 10:37:42;;;;;;;38.30;15.68;;;;;;;;;;5103088;28;20032;-75
2022/03/06 10:40:07;;;;;;;40.60;16.58;;;;;;;;;;5101675;27;20027;-74
2022/03/06 10:42:33;;;;;;;32.53;15.30;;;;;;;;;;5108028;28;20035;-77
2022/03/06 10:44:59;;;;;;;27.45;11.20;;;;;;;;;;5106640;27;20040;-80
2022/03/06 10:47:24;;;;;;;38.10;15.30;;;;;;;;;;5101475;27;20052;-78
2022/03/06 10:50:05;;;;;;;36.15;14.90;;;;;;;;;;5108687;27;20040;-79
2022/03/06 10:52:40;;;;;;;36.90;15.80;;;;;;;;;;5102655;28;20055;-80
2022/03/06 10:55:06;;;;;;;39.00;13.90;;;;;;;;;;5106993;28;20070;-78
2022/03/06 10:57:31;;;;;;;35.03;14.57;;;;;;;;;;5111374;27;20060;-78
2022/03/06 10:59:58;;;;;;;34.40;15.20;;;;;;;;;;5109277;27;20039;-77
2022/03/06 11:02:25;;;;;;;41.33;18.10;;;;;;;;;;5104807;28;20047;-78
2022/03/06 11:04:53;;;;;;;34.75;14.23;;;;;;;;;;5104150;27;20047;-77
2022/03/06 11:07:19;;;;;;;39.90;16.20;;;;;;;;;;5101714;27;20713;-81
2022/03/06 11:09:46;;;;;;;36.88;15.32;;;;;;;;;;5109616;27;20041;-79
2022/03/06 11:12:12;;;;;;;36.90;15.02;;;;;;;;;;5110159;28;20051;-79
2022/03/06 11:14:37;;;;;;;27.73;11.73;;;;;;;;;;5111219;27;20043;-80
2022/03/06 11:17:03;;;;;;;31.88;14.25;;;;;;;;;;5109034;28;20105;-80
2022/03/06 11:19:32;;;;;;;38.05;15.63;;;;;;;;;;5119081;27;20716;-80
2022/03/06 11:22:26;;;;;;;33.10;12.38;;;;;;;;;;5112995;27;20646;-79
2022/03/06 11:24:57;;;;;;;20.17;9.48;;;;;;;;;;5075183;28;20131;-79
2022/03/06 11:27:49;;;;;;;26.17;12.63;;;;;;;;;;5086649;28;20040;-80
2022/03/06 11:30:20;;;;;;;33.75;14.20;;;;;;;;;;5084204;28;20039;-80
2022/03/06 11:33:07;;;;;;;39.80;14.75;;;;;;;;;;5088439;28;20047;-80
2022/03/06 11:35:37;;;;;;;32.92;12.68;;;;;;;;;;5085360;28;20115;-79
2022/03/06 11:38:03;;;;;;;38.75;15.10;;;;;;;;;;5086219;28;20038;-80
2022/03/06 11:40:37;;;;;;;37.05;15.73;;;;;;;;;;5084807;28;20047;-79
2022/03/06 11:43:03;;;;;;;39.42;18.05;;;;;;;;;;5086163;28;20024;-79
2022/03/06 11:45:47;;;;;;;33.47;15.07;;;;;;;;;;5082697;28;20032;-80
2022/03/06 11:48:23;;;;;;;28.50;13.07;;;;;;;;;;5089346;28;20556;-80
2022/03/06 11:51:19;;;;;;;30.65;13.85;;;;;;;;;;5089308;28;20093;-80
2022/03/06 11:53:48;;;;;;;30.08;12.43;;;;;;;;;;5080661;28;20056;-80
2022/03/06 11:56:34;;;;;;;38.38;16.00;;;;;;;;;;5081572;28;20040;-79
2022/03/06 11:59:07;;;;;;;34.70;13.95;;;;;;;;;;5081886;28;20539;-80
2022/03/06 12:01:40;;;;;;;33.22;14.63;;;;;;;;;;5081301;28;20040;-80
2022/03/06 12:04:13;;;;;;;27.08;11.85;;;;;;;;;;5086400;28;20505;-81
2022/03/06 12:06:46;;;;;;;35.27;16.07;;;;;;;;;;5108229;27;20127;-80
2022/03/06 12:09:13;;;;;;;31.48;12.40;;;;;;;;;;5104872;27;20039;-78
2022/03/06 12:11:39;;;;;;;30.05;13.18;;;;;;;;;;5103400;27;20077;-79
2022/03/06 12:14:18;;;;;;;26.92;12.25;;;;;;;;;;5106070;27;20085;-79
2022/03/06 12:17:06;;;;;;;32.90;13.73;;;;;;;;;;5097692;28;20039;-79
2022/03/06 12:19:54;;;;;;;32.45;15.52;;;;;;;;;;5114057;27;20054;-78
2022/03/06 12:22:20;;;;;;;32.95;14.20;;;;;;;;;;5096637;27;20032;-79
2022/03/06 12:25:10;;;;;;;39.33;14.68;;;;;;;;;;5099932;28;20043;-80
2022/03/06 12:27:44;;;;;;;33.97;15.13;;;;;;;;;;5101241;27;20043;-77
2022/03/06 12:30:16;;;;;;;19.63;9.98;;;;;;;;;;5104584;28;20042;-77
2022/03/06 12:32:42;;;;;;;31.02;13.90;;;;;;;;;;5101847;27;20050;-78
2022/03/06 12:35:14;;;;;;;31.27;13.98;;;;;;;;;;5104933;28;20047;-78
2022/03/06 12:37:59;;;;;;;33.28;13.73;;;;;;;;;;5104456;28;20024;-78
2022/03/06 12:40:29;;;;;;;35.35;15.55;;;;;;;;;;5105727;27;20084;-77
2022/03/06 12:43:05;;;;;;;29.83;14.68;;;;;;;;;;5098465;28;20062;-77
2022/03/06 12:45:34;;;;;;;32.58;14.05;;;;;;;;;;5094972;28;20074;-77
2022/03/06 12:48:00;;;;;;;32.42;14.98;;;;;;;;;;5100753;28;20476;-77
2022/03/06 12:50:26;;;;;;;34.88;16.05;;;;;;;;;;5092072;27;20107;-75
2022/03/06 12:52:56;;;;;;;23.80;10.90;;;;;;;;;;5081084;28;20044;-77
2022/03/06 12:55:24;;;;;;;34.95;14.43;;;;;;;;;;5087077;28;20089;-77
2022/03/06 12:57:55;;;;;;;38.15;16.88;;;;;;;;;;5084255;28;20521;-75
2022/03/06 13:00:23;;;;;;;33.75;13.57;;;;;;;;;;5082961;28;20032;-76
2022/03/06 13:02:51;;;;;;;27.90;12.40;;;;;;;;;;5081673;28;20027;-76
2022/03/06 13:05:17;;;;;;;49.42;13.80;;;;;;;;;;5081728;28;20043;-76
2022/03/06 13:07:42;;;;;;;35.83;15.85;;;;;;;;;;5087368;27;20048;-76
2022/03/06 13:10:14;;;;;;;35.47;17.70;;;;;;;;;;5106797;28;20081;-76
2022/03/06 13:12:42;;;;;;;30.40;13.52;;;;;;;;;;5106054;28;20115;-76
2022/03/06 13:15:28;;;;;;;30.40;15.40;;;;;;;;;;5100910;27;20035;-77
2022/03/06 13:18:00;;;;;;;28.55;14.27;;;;;;;;;;5100626;28;20046;-77
2022/03/06 13:20:30;;;;;;;31.20;15.30;;;;;;;;;;5087471;28;20071;-77
2022/03/06 13:22:56;;;;;;;30.77;14.25;;;;;;;;;;5099750;27;20036;-77
2022/03/06 13:25:25;;;;;;;30.88;14.23;;;;;;;;;;5079691;27;20519;-76
2022/03/06 13:27:52;;;;;;;30.08;13.98;;;;;;;;;;5084427;28;20016;-77
2022/03/06 13:30:19;;;;;;;28.98;12.65;;;;;;;;;;5082329;28;20043;-77
2022/03/06 13:32:53;;;;;;;32.25;14.75;;;;;;;;;;5083856;28;20144;-77
2022/03/06 13:35:35;;;;;;;28.77;14.20;;;;;;;;;;5092216;28;20043;-77
2022/03/06 13:38:06;;;;;;;31.13;13.63;;;;;;;;;;5096638;28;20057;-77
2022/03/06 13:40:34;;;;;;;30.10;13.50;;;;;;;;;;5102685;28;20735;-77
2022/03/06 13:43:00;;;;;;;27.35;12.50;;;;;;;;;;5092038;28;20630;-77
2022/03/06 13:45:26;;;;;;;25.98;12.63;;;;;;;;;;5089852;27;20051;-78
2022/03/06 13:47:57;;;;;;;29.52;15.13;;;;;;;;;;5083984;28;20170;-76
2022/03/06 13:50:26;;;;;;;32.65;13.63;;;;;;;;;;5075426;28;20032;-77
2022/03/06 13:52:52;;;;;;;33.35;13.45;;;;;;;;;;5074593;28;20047;-77
2022/03/06 13:55:20;;;;;;;28.67;13.65;;;;;;;;;;5067160;27;20024;-77
2022/03/06 13:57:58;;;;;;;26.30;12.05;;;;;;;;;;5079770;28;20080;-74
2022/03/06 14:00:26;;;;;;;32.95;14.23;;;;;;;;;;5072698;28;20116;-76
2022/03/06 14:03:06;;;;;;;29.75;14.57;;;;;;;;;;5073737;28;20047;-76
2022/03/06 14:05:34;;;;;;;31.63;13.15;;;;;;;;;;5078053;27;20048;-77
2022/03/06 14:08:26;;;;;;;35.88;14.80;;;;;;;;;;5080787;28;20041;-76
2022/03/06 14:11:02;;;;;;;33.85;15.43;;;;;;;;;;5081456;28;20028;-77
2022/03/06 14:13:39;;;;;;;28.63;13.93;;;;;;;;;;5077354;28;20044;-77
2022/03/06 14:16:05;;;;;;;26.30;11.32;;;;;;;;;;5087157;28;20021;-77
2022/03/06 14:18:35;;;;;;;28.30;12.02;;;;;;;;;;5088063;28;20114;-77
2022/03/06 14:21:20;;;;;;;31.75;12.85;;;;;;;;;;5086149;28;20040;-77